Time;durP1;ratioP1;P1;durP2;ratioP2;P2;SDS_P1;SDS_P2;PMS_P1;PMS_P2;Temp;Humidity;BMP_temperature;BMP_pressure;BME280_temperature;BME280_humidity;BME280_pressure;Samples;Min_cycle;Max_cycle;Signal;HPM_P1;HPM_P2
2021/07/06 00:01:18;;;;;;;2.25;1.30;;;;;;;15.86;86.71;99802.50;5023250;28;20119;-67
2021/07/06 00:03:45;;;;;;;1.30;1.00;;;;;;;15.84;86.85;99796.47;5015618;28;20074;-68
2021/07/06 00:06:11;;;;;;;1.63;1.05;;;;;;;15.87;86.33;99814.22;5020684;28;20054;-66
2021/07/06 00:08:39;;;;;;;3.30;1.15;;;;;;;15.98;85.58;99811.84;5023065;28;20050;-67
2021/07/06 00:11:05;;;;;;;1.27;0.85;;;;;;;15.97;86.04;99804.75;5028596;28;20440;-66
2021/07/06 00:13:31;;;;;;;1.90;1.30;;;;;;;16.03;85.51;99811.28;5032018;28;20053;-67
2021/07/06 00:15:58;;;;;;;2.50;1.00;;;;;;;16.03;85.54;99812.13;5030976;28;20045;-67
2021/07/06 00:18:24;;;;;;;1.10;0.88;;;;;;;16.06;85.52;99798.19;5017774;28;20053;-66
2021/07/06 00:20:51;;;;;;;1.80;1.30;;;;;;;16.14;84.65;99804.53;5023756;28;20050;-67
2021/07/06 00:23:17;;;;;;;2.38;1.00;;;;;;;16.18;84.67;99798.53;5022482;28;20077;-66
2021/07/06 00:25:45;;;;;;;2.05;1.40;;;;;;;16.20;84.82;99803.75;5019904;28;20459;-66
2021/07/06 00:28:11;;;;;;;2.65;1.50;;;;;;;16.12;85.68;99801.19;5011420;28;20120;-66
2021/07/06 00:30:37;;;;;;;1.88;1.40;;;;;;;16.07;85.42;99799.88;5013487;28;20080;-66
2021/07/06 00:33:04;;;;;;;2.38;1.15;;;;;;;16.05;85.21;99801.94;5021921;28;20098;-66
2021/07/06 00:35:31;;;;;;;2.13;1.00;;;;;;;16.04;85.38;99797.56;5020357;28;20053;-68
2021/07/06 00:37:57;;;;;;;2.50;1.10;;;;;;;16.04;85.32;99800.25;5015104;28;20049;-67
2021/07/06 00:40:24;;;;;;;1.60;1.13;;;;;;;16.09;85.36;99800.50;5023218;28;20042;-67
2021/07/06 00:42:58;;;;;;;1.50;1.08;;;;;;;16.12;85.04;99799.31;5026097;28;20049;-66
2021/07/06 00:45:25;;;;;;;1.63;1.10;;;;;;;16.12;84.97;99798.47;5013066;28;20128;-67
2021/07/06 00:47:51;;;;;;;1.80;1.08;;;;;;;16.04;84.99;99789.44;5022247;28;20054;-66
2021/07/06 00:50:20;;;;;;;2.03;0.90;;;;;;;16.00;85.21;99790.84;5014605;28;20045;-67
2021/07/06 00:52:47;;;;;;;3.50;1.00;;;;;;;15.93;85.59;99789.91;5012544;28;20057;-65
2021/07/06 00:55:14;;;;;;;3.15;1.35;;;;;;;15.90;85.75;99784.88;5024393;28;20049;-67
2021/07/06 00:57:40;;;;;;;4.68;1.30;;;;;;;15.88;85.75;99781.53;5011154;28;20042;-67
2021/07/06 01:00:12;;;;;;;1.45;0.93;;;;;;;15.87;86.01;99795.25;5028660;28;20374;-67
2021/07/06 01:02:39;;;;;;;1.52;0.82;;;;;;;15.90;85.89;99795.72;5023856;28;20041;-66
2021/07/06 01:05:06;;;;;;;1.23;1.00;;;;;;;15.90;85.99;99792.16;5030043;28;20053;-67
2021/07/06 01:07:33;;;;;;;2.10;1.40;;;;;;;15.89;85.85;99799.44;5026300;28;20046;-65
2021/07/06 01:10:00;;;;;;;1.52;1.13;;;;;;;15.91;86.14;99797.41;5022815;28;20046;-66
2021/07/06 01:12:27;;;;;;;2.03;1.40;;;;;;;15.91;85.63;99797.41;5014554;28;20096;-67
2021/07/06 01:14:53;;;;;;;1.40;1.02;;;;;;;15.89;86.04;99804.03;5016719;28;20049;-66
2021/07/06 01:17:27;;;;;;;2.40;1.30;;;;;;;15.95;85.18;99804.09;5021664;28;20095;-66
2021/07/06 01:19:54;;;;;;;1.35;1.05;;;;;;;15.93;85.42;99805.31;5019528;28;20092;-68
2021/07/06 01:22:33;;;;;;;2.42;1.15;;;;;;;15.96;84.93;99804.94;5019454;28;20045;-67
2021/07/06 01:25:00;;;;;;;1.98;1.10;;;;;;;15.96;84.17;99797.66;5014159;28;20058;-67
2021/07/06 01:27:27;;;;;;;3.92;1.58;;;;;;;15.93;84.81;99798.03;5018339;28;20065;-69
2021/07/06 01:29:54;;;;;;;5.88;1.40;;;;;;;15.90;85.14;99798.44;5012739;28;20096;-64
2021/07/06 01:32:20;;;;;;;2.83;1.40;;;;;;;15.86;85.35;99805.22;5024830;28;20467;-66
2021/07/06 01:34:47;;;;;;;1.80;1.17;;;;;;;15.86;85.36;99804.38;5021980;28;20076;-69
2021/07/06 01:37:17;;;;;;;2.15;1.60;;;;;;;15.78;85.53;99803.47;5014201;28;20058;-67
2021/07/06 01:39:45;;;;;;;2.08;1.33;;;;;;;15.80;85.11;99787.06;5021580;28;20045;-65
2021/07/06 01:42:16;;;;;;;2.25;1.08;;;;;;;15.81;85.30;99791.44;5020441;28;20049;-64
2021/07/06 01:44:42;;;;;;;2.78;1.42;;;;;;;15.82;85.23;99795.81;5011997;28;20100;-66
2021/07/06 01:47:09;;;;;;;2.45;1.00;;;;;;;15.90;84.69;99798.44;5013366;28;20050;-66
2021/07/06 01:49:35;;;;;;;2.25;1.10;;;;;;;15.92;84.41;99790.94;5023433;28;20049;-67
2021/07/06 01:52:02;;;;;;;1.98;1.00;;;;;;;15.94;84.10;99783.47;5016177;28;20057;-66
2021/07/06 01:54:28;;;;;;;3.97;1.23;;;;;;;15.95;83.95;99778.91;5023624;28;20567;-65
2021/07/06 01:56:56;;;;;;;1.58;0.95;;;;;;;15.96;84.06;99778.69;5019530;28;20049;-67
2021/07/06 01:59:22;;;;;;;2.28;1.30;;;;;;;16.01;83.43;99780.84;5016564;28;20049;-68
2021/07/06 02:01:49;;;;;;;4.00;1.25;;;;;;;16.00;83.55;99782.72;5017355;28;20073;-66
2021/07/06 02:04:16;;;;;;;1.42;1.00;;;;;;;16.05;83.26;99774.88;5018762;28;20053;-66
2021/07/06 02:06:42;;;;;;;1.05;0.90;;;;;;;16.02;83.60;99777.97;5020791;28;20049;-68
2021/07/06 02:09:09;;;;;;;1.95;1.10;;;;;;;16.05;83.20;99772.16;5014026;28;20046;-65
2021/07/06 02:11:35;;;;;;;2.55;0.88;;;;;;;16.02;83.76;99777.97;5013273;28;20176;-67
2021/07/06 02:14:04;;;;;;;2.17;1.00;;;;;;;16.04;84.00;99765.06;5021005;28;20513;-67
2021/07/06 02:16:30;;;;;;;3.22;1.10;;;;;;;16.05;83.96;99761.31;5025381;28;20394;-66
2021/07/06 02:18:56;;;;;;;3.95;1.05;;;;;;;16.09;83.42;99759.91;5010528;28;20056;-67
2021/07/06 02:21:23;;;;;;;2.28;1.13;;;;;;;16.14;83.07;99766.63;5024431;28;20041;-67
2021/07/06 02:23:49;;;;;;;1.38;1.02;;;;;;;16.13;83.40;99764.97;5010161;28;20230;-67
2021/07/06 02:26:16;;;;;;;1.77;1.10;;;;;;;16.07;83.96;99764.69;5026420;28;20095;-67
2021/07/06 02:28:43;;;;;;;1.15;0.95;;;;;;;16.05;84.26;99750.50;5013508;28;20053;-68
2021/07/06 02:31:10;;;;;;;1.65;0.73;;;;;;;16.05;84.58;99749.66;5014276;28;20041;-66
2021/07/06 02:33:37;;;;;;;3.17;0.88;;;;;;;16.06;84.48;99745.94;5019221;28;20050;-66
2021/07/06 02:36:05;;;;;;;5.32;2.00;;;;;;;16.05;84.44;99736.13;5014116;28;20049;-66
2021/07/06 02:38:31;;;;;;;2.38;1.55;;;;;;;16.05;84.16;99734.25;5019423;28;20038;-68
2021/07/06 02:40:58;;;;;;;1.67;1.10;;;;;;;16.05;84.35;99731.56;5019875;28;20510;-67
2021/07/06 02:43:24;;;;;;;2.70;1.00;;;;;;;16.02;84.37;99729.25;5020639;28;20525;-70
2021/07/06 02:45:51;;;;;;;3.15;1.10;;;;;;;16.00;84.75;99731.31;5013646;28;20450;-67
2021/07/06 02:48:19;;;;;;;1.70;1.20;;;;;;;15.94;84.98;99729.34;5013091;28;20496;-67
2021/07/06 02:50:45;;;;;;;1.63;1.00;;;;;;;15.91;85.07;99737.03;5020657;28;20099;-67
2021/07/06 02:53:13;;;;;;;1.95;1.30;;;;;;;15.87;85.03;99736.56;5019788;28;20103;-65
2021/07/06 02:55:40;;;;;;;2.30;1.08;;;;;;;15.75;85.58;99744.34;5012129;28;20575;-67
2021/07/06 02:58:07;;;;;;;1.13;0.88;;;;;;;15.65;86.05;99741.09;5017084;28;20050;-68
2021/07/06 03:00:34;;;;;;;1.83;1.30;;;;;;;15.54;86.61;99741.53;5014918;28;20509;-67
2021/07/06 03:03:03;;;;;;;1.42;1.17;;;;;;;15.44;87.22;99741.81;5024373;28;20062;-66
2021/07/06 03:05:32;;;;;;;1.98;1.13;;;;;;;15.38;87.36;99747.13;5013703;28;20100;-68
2021/07/06 03:08:00;;;;;;;3.15;1.20;;;;;;;15.32;87.54;99745.19;5027543;28;20100;-66
2021/07/06 03:10:28;;;;;;;2.05;1.30;;;;;;;15.33;87.42;99738.75;5009710;28;20522;-66
2021/07/06 03:12:55;;;;;;;2.03;1.50;;;;;;;15.26;87.81;99741.34;5020814;28;20076;-67
2021/07/06 03:15:23;;;;;;;0.98;0.80;;;;;;;15.20;88.10;99740.25;5017500;28;20497;-65
2021/07/06 03:17:50;;;;;;;2.92;1.13;;;;;;;15.17;87.96;99735.22;5010403;28;20509;-64
2021/07/06 03:20:18;;;;;;;1.80;1.10;;;;;;;15.14;88.12;99729.31;5021439;28;20093;-65
2021/07/06 03:22:47;;;;;;;5.03;1.40;;;;;;;15.07;88.28;99726.53;5014533;28;20046;-67
2021/07/06 03:25:16;;;;;;;1.40;1.02;;;;;;;15.08;88.22;99735.47;5024869;28;20115;-64
2021/07/06 03:27:44;;;;;;;1.80;1.10;;;;;;;15.05;88.38;99735.88;5016061;28;20571;-64
2021/07/06 03:30:12;;;;;;;2.03;1.02;;;;;;;15.01;88.40;99740.78;5019925;28;20049;-67
2021/07/06 03:32:39;;;;;;;2.08;1.48;;;;;;;14.96;88.44;99736.97;5010117;28;20065;-65
2021/07/06 03:35:07;;;;;;;2.10;1.38;;;;;;;14.93;88.98;99743.59;5010808;28;20449;-67
2021/07/06 03:37:34;;;;;;;2.53;1.30;;;;;;;14.91;88.95;99740.19;5018307;28;20042;-65
2021/07/06 03:40:03;;;;;;;3.53;1.40;;;;;;;14.90;89.26;99741.22;5022252;28;20405;-65
2021/07/06 03:42:29;;;;;;;1.73;0.93;;;;;;;14.89;89.07;99737.69;5011851;28;20049;-65
2021/07/06 03:44:55;;;;;;;2.33;1.50;;;;;;;14.91;89.08;99724.81;5011722;28;20109;-65
2021/07/06 03:47:22;;;;;;;3.38;2.38;;;;;;;14.97;89.36;99725.13;5022568;28;20050;-67
2021/07/06 03:49:48;;;;;;;4.57;2.00;;;;;;;15.00;88.98;99725.59;5019018;28;20107;-66
2021/07/06 03:52:14;;;;;;;2.88;1.77;;;;;;;15.13;88.63;99730.34;5015360;28;20042;-64
2021/07/06 03:54:41;;;;;;;3.40;1.83;;;;;;;15.16;88.70;99727.28;5026800;28;20053;-66
2021/07/06 03:57:08;;;;;;;4.60;2.33;;;;;;;15.25;88.64;99720.75;5028458;28;20464;-66
2021/07/06 03:59:35;;;;;;;4.28;1.67;;;;;;;15.37;88.04;99735.47;5018225;28;20093;-66
2021/07/06 04:02:01;;;;;;;2.55;1.25;;;;;;;15.45;87.59;99732.69;5014625;28;20050;-66
2021/07/06 04:04:28;;;;;;;2.47;1.40;;;;;;;15.46;87.33;99737.06;5021590;28;20049;-66
2021/07/06 04:06:54;;;;;;;3.17;1.98;;;;;;;15.57;86.99;99734.91;5018835;28;20465;-64
2021/07/06 04:09:20;;;;;;;4.15;1.63;;;;;;;15.64;86.62;99738.56;5014925;28;20069;-68
2021/07/06 04:11:47;;;;;;;2.42;1.60;;;;;;;15.72;86.40;99738.44;5010452;28;20038;-67
2021/07/06 04:14:14;;;;;;;4.47;1.70;;;;;;;15.77;86.19;99744.97;5028225;28;20053;-65
2021/07/06 04:16:41;;;;;;;3.90;2.13;;;;;;;15.87;85.89;99738.44;5020726;28;20469;-66
2021/07/06 04:19:08;;;;;;;4.97;2.17;;;;;;;15.98;85.69;99737.91;5015748;28;20092;-64
2021/07/06 04:21:35;;;;;;;2.80;1.95;;;;;;;16.17;84.77;99742.72;5030056;28;20042;-65
2021/07/06 04:24:02;;;;;;;4.90;2.70;;;;;;;16.28;84.69;99734.09;5029586;28;20249;-66
2021/07/06 04:26:29;;;;;;;3.45;1.85;;;;;;;16.49;83.84;99735.94;5022759;28;20269;-63
2021/07/06 04:28:55;;;;;;;4.15;1.90;;;;;;;16.56;83.77;99728.69;5023208;28;20050;-66
2021/07/06 04:31:23;;;;;;;7.10;2.20;;;;;;;16.64;83.48;99727.75;5022120;28;20046;-64
2021/07/06 04:33:49;;;;;;;5.43;1.90;;;;;;;16.80;82.76;99718.50;5012327;28;20049;-67
2021/07/06 04:36:15;;;;;;;3.50;1.90;;;;;;;16.88;82.81;99726.50;5018815;28;20053;-64
2021/07/06 04:38:42;;;;;;;3.47;2.05;;;;;;;16.99;82.59;99715.09;5029705;28;20108;-65
2021/07/06 04:41:08;;;;;;;3.92;1.92;;;;;;;17.09;82.23;99723.72;5021161;28;20080;-65
2021/07/06 04:43:35;;;;;;;4.82;2.05;;;;;;;17.20;81.79;99723.19;5021674;28;20502;-64
2021/07/06 04:46:01;;;;;;;5.32;1.80;;;;;;;17.41;80.54;99724.13;5029407;28;20305;-64
2021/07/06 04:48:29;;;;;;;7.45;2.05;;;;;;;17.50;80.42;99723.75;5025450;28;20116;-66
2021/07/06 04:50:55;;;;;;;2.30;1.73;;;;;;;17.65;80.07;99718.19;5016353;28;20123;-65
2021/07/06 04:53:23;;;;;;;3.55;1.75;;;;;;;17.82;79.18;99714.09;5028323;28;20417;-65
2021/07/06 04:55:50;;;;;;;6.40;1.83;;;;;;;17.97;78.45;99713.94;5024434;28;20050;-65
2021/07/06 04:58:16;;;;;;;5.85;2.08;;;;;;;18.08;77.79;99721.47;5016488;28;20050;-66
2021/07/06 05:00:43;;;;;;;3.13;1.70;;;;;;;18.23;77.79;99715.88;5024262;28;20582;-67
2021/07/06 05:03:11;;;;;;;4.00;2.00;;;;;;;18.36;77.37;99712.34;5019259;28;20050;-63
2021/07/06 05:05:40;;;;;;;3.83;1.08;;;;;;;18.49;77.25;99704.19;5028558;28;20500;-65
2021/07/06 05:08:06;;;;;;;3.13;1.65;;;;;;;18.62;76.45;99711.53;5015859;28;20041;-67
2021/07/06 05:10:34;;;;;;;3.80;1.77;;;;;;;18.70;75.80;99712.16;5022757;28;20042;-64
2021/07/06 05:13:01;;;;;;;3.58;1.80;;;;;;;18.94;75.34;99710.69;5020710;28;20155;-63
2021/07/06 05:15:27;;;;;;;3.08;1.35;;;;;;;19.12;74.64;99709.19;5014568;28;20084;-65
2021/07/06 05:17:54;;;;;;;3.45;1.40;;;;;;;19.20;73.52;99715.25;5031201;28;20049;-65
2021/07/06 05:20:20;;;;;;;5.57;1.50;;;;;;;19.34;73.07;99716.06;5029257;28;20060;-66
2021/07/06 05:22:48;;;;;;;2.72;1.55;;;;;;;19.59;72.68;99713.47;5011207;28;20057;-66
2021/07/06 05:25:15;;;;;;;5.35;1.55;;;;;;;19.79;71.98;99713.41;5017978;28;20049;-65
2021/07/06 05:27:42;;;;;;;2.10;1.30;;;;;;;19.61;71.59;99710.53;5018353;28;20088;-65
2021/07/06 05:30:09;;;;;;;4.22;1.35;;;;;;;19.96;70.40;99711.84;5023902;28;20516;-65
2021/07/06 05:32:37;;;;;;;4.45;1.20;;;;;;;20.12;71.36;99714.03;5022933;28;20132;-68
2021/07/06 05:35:05;;;;;;;2.95;1.13;;;;;;;20.10;70.37;99716.16;5018842;28;20608;-66
2021/07/06 05:37:31;;;;;;;3.75;1.30;;;;;;;20.04;70.22;99716.22;5026015;28;20045;-66
2021/07/06 05:39:59;;;;;;;1.95;1.15;;;;;;;20.06;70.72;99716.81;5029073;28;20057;-66
2021/07/06 05:42:26;;;;;;;10.77;1.40;;;;;;;19.92;70.22;99724.22;5020380;28;20053;-65
2021/07/06 05:44:52;;;;;;;3.17;1.52;;;;;;;20.05;69.85;99724.16;5014031;28;20115;-66
2021/07/06 05:47:18;;;;;;;3.33;1.33;;;;;;;19.97;70.19;99721.66;5025314;28;20049;-66
2021/07/06 05:49:45;;;;;;;2.22;1.48;;;;;;;20.19;70.54;99708.56;5018344;28;20041;-66
2021/07/06 05:52:11;;;;;;;4.40;1.20;;;;;;;20.26;69.27;99714.81;5030780;28;20051;-67
2021/07/06 05:54:38;;;;;;;4.35;1.48;;;;;;;20.31;68.53;99712.25;5026707;28;20062;-65
2021/07/06 05:57:05;;;;;;;5.20;1.55;;;;;;;20.32;69.16;99713.09;5020440;28;20042;-64
2021/07/06 05:59:32;;;;;;;3.92;1.02;;;;;;;20.52;68.50;99719.25;5019743;28;20494;-65
2021/07/06 06:01:58;;;;;;;2.55;1.40;;;;;;;20.45;68.26;99721.19;5020950;28;20322;-65
2021/07/06 06:04:26;;;;;;;4.85;1.38;;;;;;;20.63;67.81;99713.09;5019657;28;20053;-66
2021/07/06 06:06:52;;;;;;;2.97;1.50;;;;;;;20.81;66.92;99716.91;5030523;28;20488;-65
2021/07/06 06:09:18;;;;;;;3.53;1.45;;;;;;;20.75;67.60;99712.38;5031339;28;20049;-66
2021/07/06 06:11:45;;;;;;;1.80;1.20;;;;;;;20.75;67.08;99717.81;5021029;28;20620;-66
2021/07/06 06:14:12;;;;;;;1.23;0.93;;;;;;;21.01;66.36;99718.41;5026946;28;20501;-65
2021/07/06 06:16:39;;;;;;;2.42;1.10;;;;;;;21.14;65.59;99717.44;5023154;28;20041;-68
2021/07/06 06:19:05;;;;;;;4.03;1.10;;;;;;;21.28;66.31;99699.91;5030455;28;20076;-68
2021/07/06 06:21:33;;;;;;;1.55;1.27;;;;;;;21.48;66.37;99701.56;5030405;28;20100;-66
2021/07/06 06:24:00;;;;;;;3.10;0.80;;;;;;;21.81;64.91;99696.53;5017434;28;20078;-67
2021/07/06 06:26:27;;;;;;;2.60;1.13;;;;;;;22.06;63.52;99701.91;5026531;28;20488;-66
2021/07/06 06:28:53;;;;;;;3.50;1.17;;;;;;;22.29;63.47;99698.41;5020594;28;20431;-66
2021/07/06 06:31:21;;;;;;;1.73;1.00;;;;;;;22.32;63.36;99697.94;5029296;28;20053;-68
2021/07/06 06:33:47;;;;;;;4.32;1.52;;;;;;;22.36;62.33;99701.84;5028946;28;20052;-66
2021/07/06 06:36:13;;;;;;;2.42;1.35;;;;;;;22.12;61.88;99697.38;5021200;28;20041;-68
2021/07/06 06:38:40;;;;;;;3.35;1.13;;;;;;;22.54;60.91;99686.44;5017526;28;20068;-67
2021/07/06 06:41:07;;;;;;;5.10;1.33;;;;;;;22.48;61.18;99696.41;5018705;28;20092;-67
2021/07/06 06:43:33;;;;;;;2.33;1.00;;;;;;;22.99;60.43;99694.97;5026207;28;20384;-65
2021/07/06 06:46:00;;;;;;;1.80;1.15;;;;;;;22.88;58.71;99684.84;5013491;28;20112;-66
2021/07/06 06:48:28;;;;;;;3.38;1.27;;;;;;;22.75;57.52;99683.97;5029636;28;20056;-66
2021/07/06 06:50:54;;;;;;;4.10;1.25;;;;;;;22.56;59.94;99700.72;5029733;28;20056;-68
2021/07/06 06:53:20;;;;;;;3.05;1.27;;;;;;;22.57;60.00;99694.16;5028955;28;20566;-67
2021/07/06 06:55:47;;;;;;;8.52;1.50;;;;;;;22.41;60.60;99696.53;5021666;28;20513;-67
2021/07/06 06:58:13;;;;;;;3.80;0.90;;;;;;;22.39;60.90;99692.38;5029007;28;20162;-67
2021/07/06 07:00:40;;;;;;;2.85;1.10;;;;;;;22.08;59.95;99696.19;5025611;28;20053;-66
2021/07/06 07:03:06;;;;;;;5.50;1.10;;;;;;;21.97;61.01;99695.03;5024888;28;20064;-66
2021/07/06 07:05:34;;;;;;;1.30;1.00;;;;;;;21.98;62.91;99693.16;5024133;28;20096;-67
2021/07/06 07:08:00;;;;;;;3.35;1.20;;;;;;;22.16;62.97;99693.13;5030212;28;20049;-66
2021/07/06 07:10:27;;;;;;;2.47;1.30;;;;;;;22.40;62.28;99704.97;5027322;23;20049;-65
2021/07/06 07:12:56;;;;;;;3.05;0.98;;;;;;;22.73;62.16;99694.31;5019838;28;20107;-66
2021/07/06 07:15:22;;;;;;;2.28;1.10;;;;;;;22.75;60.96;99685.88;5011256;28;20127;-65
2021/07/06 07:17:48;;;;;;;3.50;1.33;;;;;;;22.79;60.89;99687.06;5016615;28;20115;-66
2021/07/06 07:20:15;;;;;;;5.85;1.38;;;;;;;23.10;61.36;99690.56;5025955;28;20049;-65
2021/07/06 07:22:44;;;;;;;2.38;1.23;;;;;;;23.24;59.38;99698.28;5017086;28;20046;-67
2021/07/06 07:25:12;;;;;;;5.78;1.30;;;;;;;23.34;59.38;99695.75;5024115;28;20054;-65
2021/07/06 07:27:38;;;;;;;5.18;1.20;;;;;;;23.22;58.52;99699.59;5024248;28;20069;-66
2021/07/06 07:30:06;;;;;;;2.80;1.48;;;;;;;23.30;58.15;99700.03;5020485;28;20053;-66
2021/07/06 07:32:33;;;;;;;3.60;1.33;;;;;;;23.18;57.70;99698.38;5022040;28;21843;-66
2021/07/06 07:34:59;;;;;;;3.78;1.20;;;;;;;23.21;58.33;99693.28;5011663;28;20564;-63
2021/07/06 07:37:26;;;;;;;2.28;1.15;;;;;;;23.50;57.54;99691.44;5016549;28;20042;-66
2021/07/06 07:39:54;;;;;;;2.88;1.25;;;;;;;23.75;57.71;99699.38;5015291;28;20113;-67
2021/07/06 07:42:21;;;;;;;2.33;0.90;;;;;;;23.73;57.13;99695.22;5008519;28;20046;-65
2021/07/06 07:44:47;;;;;;;2.63;1.10;;;;;;;23.74;57.34;99688.66;5023655;28;20405;-65
2021/07/06 07:47:14;;;;;;;3.78;1.45;;;;;;;23.42;56.68;99685.47;5017387;28;20050;-65
2021/07/06 07:49:40;;;;;;;2.88;1.10;;;;;;;23.71;56.56;99691.88;5020332;28;20042;-65
2021/07/06 07:52:08;;;;;;;5.28;1.38;;;;;;;23.83;57.34;99692.69;5026486;28;20042;-65
2021/07/06 07:54:34;;;;;;;4.35;1.15;;;;;;;23.89;55.91;99686.22;5026108;28;20037;-66
2021/07/06 07:57:03;;;;;;;2.67;1.23;;;;;;;24.05;56.01;99687.34;5024765;28;20057;-67
2021/07/06 07:59:31;;;;;;;7.63;1.40;;;;;;;24.06;56.88;99689.00;5016913;28;20049;-66
2021/07/06 08:01:58;;;;;;;3.78;1.10;;;;;;;24.23;55.71;99691.78;5026752;28;20052;-65
2021/07/06 08:04:24;;;;;;;3.95;1.30;;;;;;;24.26;54.81;99691.28;5019646;28;20081;-66
2021/07/06 08:06:50;;;;;;;2.17;1.05;;;;;;;24.40;54.48;99690.75;5019486;28;20042;-65
2021/07/06 08:09:17;;;;;;;5.15;1.02;;;;;;;24.53;54.77;99689.59;5026415;28;20064;-66
2021/07/06 08:11:43;;;;;;;2.80;1.10;;;;;;;24.68;54.13;99689.84;5020880;28;20053;-66
2021/07/06 08:14:11;;;;;;;1.55;1.05;;;;;;;24.83;53.33;99693.91;5020007;28;20100;-67
2021/07/06 08:16:37;;;;;;;2.30;0.90;;;;;;;24.61;52.71;99694.66;5021706;28;20045;-67
2021/07/06 08:19:04;;;;;;;2.33;1.25;;;;;;;24.62;53.16;99701.81;5019992;28;20429;-67
2021/07/06 08:21:30;;;;;;;1.90;1.15;;;;;;;24.61;52.93;99699.31;5008562;28;20050;-66
2021/07/06 08:23:59;;;;;;;3.50;1.42;;;;;;;24.89;53.18;99702.00;5011907;28;20108;-66
2021/07/06 08:26:26;;;;;;;1.40;1.02;;;;;;;24.89;52.50;99695.66;5020841;28;20132;-66
2021/07/06 08:28:53;;;;;;;3.90;1.00;;;;;;;24.87;52.25;99693.19;5026098;28;20509;-66
2021/07/06 08:31:20;;;;;;;4.13;0.95;;;;;;;24.82;52.16;99684.84;5035884;23;20493;-65
2021/07/06 08:33:47;;;;;;;1.88;1.13;;;;;;;24.85;51.20;99678.03;5038630;28;20103;-65
2021/07/06 08:36:13;;;;;;;3.15;0.93;;;;;;;24.97;51.75;99678.75;5030885;28;20501;-65
2021/07/06 08:38:40;;;;;;;3.55;1.75;;;;;;;25.04;52.52;99663.81;5031539;28;20041;-65
2021/07/06 08:41:07;;;;;;;5.22;1.23;;;;;;;25.28;52.35;99666.34;5044930;28;20056;-66
2021/07/06 08:43:34;;;;;;;7.07;0.90;;;;;;;24.93;49.25;99674.88;5033333;28;20501;-65
2021/07/06 08:46:02;;;;;;;2.20;0.85;;;;;;;25.19;49.29;99678.84;5030823;28;20061;-67
2021/07/06 08:48:32;;;;;;;1.83;0.90;;;;;;;25.15;48.49;99662.03;5034217;28;20045;-68
2021/07/06 08:50:59;;;;;;;1.70;1.20;;;;;;;25.52;50.51;99661.41;5034648;28;20397;-67
2021/07/06 08:53:27;;;;;;;2.97;1.08;;;;;;;25.77;49.68;99670.00;5033379;28;20107;-65
2021/07/06 08:55:54;;;;;;;4.28;1.20;;;;;;;25.50;48.12;99669.09;5038168;28;20052;-67
2021/07/06 08:58:21;;;;;;;2.00;0.93;;;;;;;25.58;48.13;99679.66;5038738;28;20075;-63
2021/07/06 09:00:47;;;;;;;2.55;1.33;;;;;;;25.76;49.56;99676.56;5033592;28;20045;-66
2021/07/06 09:03:13;;;;;;;3.88;1.05;;;;;;;26.01;47.49;99669.69;5042031;28;20111;-67
2021/07/06 09:05:41;;;;;;;3.53;0.98;;;;;;;26.15;49.06;99655.25;5032407;28;20045;-65
2021/07/06 09:08:09;;;;;;;2.33;1.10;;;;;;;26.21;48.37;99657.00;5037793;28;20485;-66
2021/07/06 09:10:37;;;;;;;6.78;1.40;;;;;;;26.25;47.60;99649.03;5039699;28;20072;-64
2021/07/06 09:13:18;;;;;;;3.25;1.30;;;;;;;26.23;49.90;99674.06;5040976;28;20037;-65
2021/07/06 09:15:51;;;;;;;2.95;1.02;;;;;;;26.28;47.71;99662.25;5034183;28;20130;-66
2021/07/06 09:18:19;;;;;;;5.97;1.10;;;;;;;26.40;47.02;99667.63;5029843;28;20045;-64
2021/07/06 09:21:03;;;;;;;3.78;1.20;;;;;;;26.02;47.05;99657.59;5032873;28;20053;-67
2021/07/06 09:23:31;;;;;;;3.63;0.88;;;;;;;25.97;48.16;99647.41;5031257;28;20107;-65
2021/07/06 09:26:16;;;;;;;2.58;1.20;;;;;;;25.69;49.90;99640.22;5030461;28;20405;-65
2021/07/06 09:28:44;;;;;;;3.63;1.20;;;;;;;25.33;49.07;99631.50;5039159;28;20128;-64
2021/07/06 09:31:15;;;;;;;2.35;1.20;;;;;;;25.63;48.02;99641.22;5037707;28;20107;-65
2021/07/06 09:33:49;;;;;;;3.25;1.20;;;;;;;25.76;48.89;99645.50;5039037;28;20041;-67
2021/07/06 09:36:27;;;;;;;4.20;0.80;;;;;;;26.15;44.99;99647.00;5038518;28;20088;-67
2021/07/06 09:39:05;;;;;;;4.32;0.82;;;;;;;26.22;44.65;99649.56;5031313;28;20053;-66
2021/07/06 09:41:32;;;;;;;4.25;0.80;;;;;;;26.41;45.04;99641.81;5047233;28;20041;-66
2021/07/06 09:44:18;;;;;;;3.00;0.95;;;;;;;26.01;43.65;99650.44;5040716;28;20044;-65
2021/07/06 09:46:53;;;;;;;3.35;0.80;;;;;;;26.24;45.48;99653.72;5033467;28;20122;-65
2021/07/06 09:49:22;;;;;;;4.32;0.82;;;;;;;26.64;44.66;99646.06;5038948;28;20410;-66
2021/07/06 09:51:51;;;;;;;4.68;1.20;;;;;;;27.01;41.10;99635.91;5030339;28;20056;-67
2021/07/06 09:54:35;;;;;;;2.60;0.70;;;;;;;27.17;42.76;99636.00;5040254;28;20060;-64
2021/07/06 09:57:11;;;;;;;1.15;0.68;;;;;;;27.11;42.77;99635.13;5037476;28;20164;-65
2021/07/06 09:59:37;;;;;;;2.38;0.68;;;;;;;27.03;40.49;99644.75;5040864;28;20045;-65
2021/07/06 10:02:04;;;;;;;1.88;0.70;;;;;;;27.15;40.41;99640.94;5033063;28;20053;-65
2021/07/06 10:04:35;;;;;;;2.22;0.90;;;;;;;26.96;40.64;99630.34;5044263;28;20041;-65
2021/07/06 10:07:03;;;;;;;1.77;0.70;;;;;;;27.46;42.19;99630.88;5036978;28;20076;-65
2021/07/06 10:09:30;;;;;;;3.17;0.73;;;;;;;27.55;41.26;99621.00;5036207;28;20110;-66
2021/07/06 10:11:57;;;;;;;0.93;0.60;;;;;;;27.61;41.58;99615.25;5031080;28;20053;-66
2021/07/06 10:14:24;;;;;;;2.03;0.85;;;;;;;27.65;42.07;99619.13;5029624;28;20592;-66
2021/07/06 10:16:51;;;;;;;1.65;0.80;;;;;;;27.72;41.70;99624.41;5035873;28;20092;-66
2021/07/06 10:19:18;;;;;;;4.22;0.80;;;;;;;27.51;40.23;99612.44;5029355;28;20053;-66
2021/07/06 10:21:44;;;;;;;1.75;0.70;;;;;;;27.57;41.08;99611.34;5036569;28;20095;-65
2021/07/06 10:24:15;;;;;;;1.90;0.85;;;;;;;27.31;42.00;99595.84;5030330;28;20041;-64
2021/07/06 10:26:42;;;;;;;8.95;1.17;;;;;;;27.57;41.18;99605.00;5040327;28;20045;-65
2021/07/06 10:29:09;;;;;;;2.33;0.82;;;;;;;27.52;40.95;99602.25;5036312;28;20041;-65
2021/07/06 10:31:43;;;;;;;3.92;0.68;;;;;;;27.80;42.44;99614.75;5049052;28;20075;-66
2021/07/06 10:34:24;;;;;;;1.15;0.60;;;;;;;27.76;40.19;99597.13;5038613;28;20581;-66
2021/07/06 10:36:51;;;;;;;2.20;0.90;;;;;;;27.57;40.13;99605.00;5028211;28;20072;-66
2021/07/06 10:39:42;;;;;;;3.67;0.75;;;;;;;27.61;39.17;99606.16;5035961;28;20053;-65
2021/07/06 10:42:09;;;;;;;4.45;0.75;;;;;;;27.91;40.04;99597.97;5039019;28;20122;-68
2021/07/06 10:44:39;;;;;;;2.75;0.85;;;;;;;27.71;40.12;99586.09;5035596;28;20080;-66
2021/07/06 10:47:05;;;;;;;1.10;0.68;;;;;;;27.67;39.55;99596.81;5037943;28;20466;-66
2021/07/06 10:49:34;;;;;;;2.53;0.90;;;;;;;27.74;40.65;99600.16;5039895;28;20244;-64
2021/07/06 10:52:03;;;;;;;1.75;0.60;;;;;;;27.91;39.61;99611.75;5045209;28;20099;-66
2021/07/06 10:54:37;;;;;;;0.55;0.50;;;;;;;27.90;40.19;99614.78;5029910;28;20052;-65
2021/07/06 10:57:22;;;;;;;2.45;0.70;;;;;;;28.24;38.82;99613.16;5029489;28;20049;-67
2021/07/06 10:59:52;;;;;;;1.42;0.90;;;;;;;28.24;39.42;99618.69;5033663;28;20053;-66
2021/07/06 11:02:23;;;;;;;1.10;0.60;;;;;;;28.13;38.31;99616.19;5029749;28;20049;-67
2021/07/06 11:04:54;;;;;;;1.77;0.80;;;;;;;28.72;36.13;99615.66;5032845;28;20512;-68
2021/07/06 11:07:53;;;;;;;1.10;0.50;;;;;;;28.35;37.97;99619.53;5036045;28;20261;-64
2021/07/06 11:10:31;;;;;;;1.70;0.65;;;;;;;28.47;37.59;99619.25;5049834;28;20084;-66
2021/07/06 11:13:15;;;;;;;1.88;0.70;;;;;;;28.30;37.67;99625.06;5044965;28;20052;-66
2021/07/06 11:15:42;;;;;;;2.70;0.65;;;;;;;28.93;38.18;99613.72;5044781;28;20099;-65
2021/07/06 11:18:10;;;;;;;3.50;0.73;;;;;;;29.11;35.89;99604.81;5040775;28;20082;-66
2021/07/06 11:20:40;;;;;;;1.38;0.70;;;;;;;29.58;36.21;99606.28;5046537;28;20048;-64
2021/07/06 11:23:08;;;;;;;3.40;0.82;;;;;;;29.61;36.08;99609.34;5044347;28;20071;-65
2021/07/06 11:25:42;;;;;;;4.45;0.80;;;;;;;29.62;35.82;99610.16;5056737;28;20972;-66
2021/07/06 11:28:11;;;;;;;1.30;0.60;;;;;;;29.65;35.09;99595.75;5043958;28;20049;-63
2021/07/06 11:30:42;;;;;;;1.52;0.73;;;;;;;29.91;34.58;99610.25;5053201;28;20119;-65
2021/07/06 11:33:10;;;;;;;3.17;0.80;;;;;;;29.44;34.90;99599.69;5051327;28;21133;-66
2021/07/06 11:35:39;;;;;;;0.80;0.52;;;;;;;29.07;35.50;99609.25;5051814;28;20041;-68
2021/07/06 11:38:08;;;;;;;4.82;0.85;;;;;;;29.11;36.61;99610.31;5045629;28;20680;-68